Time;durP1;ratioP1;P1;durP2;ratioP2;P2;SDS_P1;SDS_P2;PMS_P1;PMS_P2;Temp;Humidity;BMP_temperature;BMP_pressure;BME280_temperature;BME280_humidity;BME280_pressure;Samples;Min_cycle;Max_cycle;Signal;HPM_P1;HPM_P2
2023/08/20 00:02:23;;;;;;;20.07;15.00;;;;;;;21.80;87.56;100503.25;4205219;28;20228;-66
2023/08/20 00:04:50;;;;;;;17.30;12.57;;;;;;;21.79;87.39;100499.63;4194710;28;23384;-68
2023/08/20 00:07:18;;;;;;;17.03;13.80;;;;;;;21.71;87.44;100497.16;4200456;28;20233;-66
2023/08/20 00:09:45;;;;;;;18.40;13.80;;;;;;;21.61;88.09;100496.78;4202582;28;20232;-66
2023/08/20 00:12:11;;;;;;;22.37;14.80;;;;;;;21.66;88.19;100497.81;4209466;28;25614;-66
2023/08/20 00:15:06;;;;;;;19.40;14.00;;;;;;;21.63;88.24;100497.41;4203926;28;20232;-66
2023/08/20 00:17:36;;;;;;;19.20;14.03;;;;;;;21.63;88.25;100495.50;4190562;28;20415;-64
2023/08/20 00:20:12;;;;;;;16.67;14.03;;;;;;;21.63;88.44;100489.97;4199846;28;20311;-65
2023/08/20 00:22:41;;;;;;;17.47;13.33;;;;;;;21.62;88.64;100485.53;4202985;28;22842;-66
2023/08/20 00:25:09;;;;;;;17.73;13.80;;;;;;;21.57;88.53;100484.47;4207561;28;20239;-66
2023/08/20 00:27:35;;;;;;;18.77;13.83;;;;;;;21.52;89.04;100490.66;4221316;28;20753;-65
2023/08/20 00:30:03;;;;;;;17.00;14.13;;;;;;;21.49;88.84;100480.88;4199904;28;23023;-66
2023/08/20 00:32:30;;;;;;;16.87;13.00;;;;;;;21.53;88.60;100486.81;4204308;28;21123;-66
2023/08/20 00:34:57;;;;;;;17.33;12.93;;;;;;;21.50;89.02;100487.25;4203093;28;20906;-66
2023/08/20 00:37:25;;;;;;;23.67;13.87;;;;;;;21.42;89.53;100482.81;4205659;28;20313;-65
2023/08/20 00:39:52;;;;;;;21.20;13.63;;;;;;;21.30;89.92;100484.59;4200854;28;20262;-66
2023/08/20 00:42:18;;;;;;;17.70;13.50;;;;;;;21.23;90.26;100487.34;4203977;28;21751;-68
2023/08/20 00:44:45;;;;;;;20.33;14.43;;;;;;;21.38;88.99;100482.41;4207345;28;20288;-65
2023/08/20 00:47:13;;;;;;;18.10;13.53;;;;;;;21.36;89.29;100489.22;4206831;28;20506;-66
2023/08/20 00:49:40;;;;;;;18.17;13.07;;;;;;;21.34;89.20;100477.56;4209795;28;20241;-67
2023/08/20 00:52:12;;;;;;;21.47;13.67;;;;;;;21.27;89.39;100485.88;4198486;28;20284;-66
2023/08/20 00:54:44;;;;;;;18.23;12.53;;;;;;;21.21;89.88;100490.31;4194226;28;21184;-66
2023/08/20 00:57:13;;;;;;;19.67;14.67;;;;;;;21.16;90.06;100483.78;4202312;28;20502;-66
2023/08/20 00:59:40;;;;;;;17.10;13.07;;;;;;;21.09;90.53;100483.81;4196542;28;20630;-65
2023/08/20 01:02:07;;;;;;;18.93;13.00;;;;;;;21.04;90.25;100478.09;4202179;28;20239;-66
2023/08/20 01:04:33;;;;;;;19.20;13.73;;;;;;;21.04;90.46;100481.69;4191202;28;23467;-65
2023/08/20 01:07:31;;;;;;;18.43;13.47;;;;;;;21.06;90.47;100489.72;4190258;28;20244;-65
2023/08/20 01:10:08;;;;;;;17.47;12.87;;;;;;;21.11;90.60;100478.09;4200462;28;20299;-67
2023/08/20 01:12:36;;;;;;;20.07;14.73;;;;;;;21.18;90.33;100474.25;4198961;28;20225;-66
2023/08/20 01:15:02;;;;;;;21.13;14.40;;;;;;;21.17;90.75;100471.69;4190936;28;22260;-66
2023/08/20 01:17:29;;;;;;;14.80;12.27;;;;;;;21.13;90.48;100485.06;4196640;28;20233;-65
2023/08/20 01:19:56;;;;;;;20.20;14.70;;;;;;;21.12;90.57;100477.03;4187320;28;20226;-66
2023/08/20 01:22:47;;;;;;;25.23;16.07;;;;;;;21.16;90.52;100481.03;4198554;28;20239;-66
2023/08/20 01:25:29;;;;;;;18.13;13.97;;;;;;;21.17;90.13;100478.06;4198801;28;20231;-65
2023/08/20 01:28:25;;;;;;;19.53;14.17;;;;;;;21.12;90.23;100472.34;4197894;28;20616;-68
2023/08/20 01:30:53;;;;;;;23.47;15.00;;;;;;;21.11;90.21;100480.84;4212118;28;20241;-66
2023/08/20 01:33:20;;;;;;;21.57;15.90;;;;;;;20.98;91.21;100478.97;4186920;28;23332;-67
2023/08/20 01:35:46;;;;;;;20.27;16.00;;;;;;;20.94;91.45;100486.78;4215059;28;24174;-66
2023/08/20 01:38:13;;;;;;;19.40;15.80;;;;;;;20.89;91.45;100486.59;4202499;28;20308;-65
2023/08/20 01:40:39;;;;;;;20.57;15.47;;;;;;;20.88;91.24;100476.66;4197134;28;20324;-65
2023/08/20 01:43:07;;;;;;;20.73;15.57;;;;;;;20.92;91.52;100482.56;4191255;28;20260;-66
2023/08/20 01:45:33;;;;;;;20.93;15.83;;;;;;;20.89;91.50;100481.94;4201459;28;20312;-65
2023/08/20 01:48:00;;;;;;;22.27;16.30;;;;;;;21.00;91.01;100482.34;4189573;28;21620;-65
2023/08/20 01:50:27;;;;;;;21.23;16.30;;;;;;;21.02;90.98;100478.31;4202487;28;20322;-65
2023/08/20 01:52:53;;;;;;;23.13;16.50;;;;;;;21.09;90.78;100481.06;4213679;28;20291;-65
2023/08/20 01:55:20;;;;;;;20.30;15.70;;;;;;;21.12;90.27;100479.78;4200650;28;20242;-65
2023/08/20 01:57:47;;;;;;;18.77;14.70;;;;;;;21.14;90.30;100475.75;4198398;28;20245;-65
2023/08/20 02:00:13;;;;;;;19.67;16.07;;;;;;;21.07;91.00;100483.16;4195298;28;26928;-67
2023/08/20 02:02:40;;;;;;;19.67;15.90;;;;;;;21.03;91.24;100485.50;4198178;28;20245;-65
2023/08/20 02:05:07;;;;;;;20.60;16.00;;;;;;;20.99;91.59;100500.78;4196666;28;20644;-65
2023/08/20 02:07:35;;;;;;;21.07;15.97;;;;;;;21.07;91.20;100498.84;4176836;28;20422;-66
2023/08/20 02:10:02;;;;;;;20.23;16.97;;;;;;;21.07;91.46;100501.59;4208613;28;21262;-66
2023/08/20 02:12:29;;;;;;;22.63;16.37;;;;;;;21.03;91.50;100490.19;4192777;28;20224;-65
2023/08/20 02:14:55;;;;;;;26.20;17.73;;;;;;;21.07;90.99;100496.94;4190274;28;20361;-65
2023/08/20 02:17:23;;;;;;;22.53;16.70;;;;;;;21.06;91.30;100495.25;4206834;28;20369;-65
2023/08/20 02:19:49;;;;;;;19.73;15.80;;;;;;;20.99;91.28;100492.53;4196963;28;23353;-66
2023/08/20 02:22:17;;;;;;;18.50;14.93;;;;;;;20.94;91.64;100491.47;4190277;28;20239;-67
2023/08/20 02:24:43;;;;;;;22.77;16.23;;;;;;;20.90;91.90;100489.13;4200043;28;20249;-66
2023/08/20 02:27:10;;;;;;;20.23;15.23;;;;;;;20.85;91.88;100496.34;4187884;28;20307;-67
2023/08/20 02:29:36;;;;;;;18.10;14.70;;;;;;;20.82;92.03;100492.09;4194558;28;20435;-68
2023/08/20 02:32:03;;;;;;;22.07;16.20;;;;;;;20.89;91.30;100490.19;4183522;28;20301;-66
2023/08/20 02:34:30;;;;;;;25.83;16.60;;;;;;;20.92;91.34;100486.19;4186338;28;20234;-66
2023/08/20 02:36:56;;;;;;;21.33;16.43;;;;;;;20.98;91.09;100487.22;4200888;28;20247;-68
2023/08/20 02:39:24;;;;;;;18.40;14.80;;;;;;;20.99;91.26;100486.16;4184921;28;21899;-67
2023/08/20 02:41:51;;;;;;;19.47;15.43;;;;;;;20.96;90.74;100481.09;4196316;28;20244;-66
2023/08/20 02:44:17;;;;;;;21.87;15.43;;;;;;;20.94;90.99;100484.03;4199060;28;21082;-65
2023/08/20 02:46:44;;;;;;;19.33;14.63;;;;;;;20.93;91.72;100478.75;4212341;28;21756;-66
2023/08/20 02:49:11;;;;;;;24.17;15.57;;;;;;;20.87;91.75;100484.06;4194661;28;20473;-65
2023/08/20 02:51:38;;;;;;;21.63;15.90;;;;;;;20.81;91.92;100475.81;4203928;28;21448;-65
2023/08/20 02:54:05;;;;;;;19.60;14.80;;;;;;;20.80;91.86;100479.63;4199530;28;20862;-66
2023/08/20 02:56:31;;;;;;;21.57;14.90;;;;;;;20.74;92.16;100479.44;4194768;28;21730;-67
2023/08/20 02:58:58;;;;;;;21.40;15.33;;;;;;;21.00;91.12;100480.44;4192736;28;20345;-66
2023/08/20 03:01:25;;;;;;;20.23;16.47;;;;;;;21.08;91.17;100484.00;4195770;28;20314;-67
2023/08/20 03:03:52;;;;;;;18.10;14.23;;;;;;;20.98;91.31;100481.72;4199355;28;20248;-66
2023/08/20 03:06:19;;;;;;;22.70;14.47;;;;;;;20.93;91.42;100476.00;4193470;28;20240;-66
2023/08/20 03:08:45;;;;;;;23.93;15.67;;;;;;;20.83;91.70;100477.28;4188782;28;25683;-66
2023/08/20 03:11:12;;;;;;;18.43;13.73;;;;;;;20.80;92.16;100486.00;4197490;28;20250;-64
2023/08/20 03:13:38;;;;;;;21.30;15.63;;;;;;;20.76;92.04;100487.47;4201271;28;20326;-65
2023/08/20 03:16:05;;;;;;;18.57;14.73;;;;;;;20.62;92.43;100467.34;4192432;28;20574;-66
2023/08/20 03:18:31;;;;;;;23.27;15.53;;;;;;;20.76;92.26;100483.88;4193582;28;21967;-66
2023/08/20 03:20:58;;;;;;;20.60;14.83;;;;;;;20.77;92.30;100483.66;4202994;28;20313;-64
2023/08/20 03:23:25;;;;;;;18.70;14.80;;;;;;;20.78;92.17;100490.84;4193989;28;20588;-66
2023/08/20 03:25:51;;;;;;;21.87;15.30;;;;;;;20.78;91.73;100490.00;4192692;28;20321;-66
2023/08/20 03:28:18;;;;;;;24.53;15.80;;;;;;;20.70;92.44;100493.78;4190691;28;20235;-65
2023/08/20 03:30:45;;;;;;;21.20;15.50;;;;;;;20.68;92.40;100498.66;4195182;28;20228;-66
2023/08/20 03:33:12;;;;;;;21.90;16.33;;;;;;;20.69;92.75;100494.84;4195405;28;22267;-64
2023/08/20 03:35:38;;;;;;;25.67;16.93;;;;;;;20.76;92.46;100498.47;4203866;28;21450;-65
2023/08/20 03:38:05;;;;;;;21.73;16.03;;;;;;;20.74;92.73;100492.31;4189750;28;20238;-65
2023/08/20 03:40:31;;;;;;;19.80;15.50;;;;;;;20.76;92.66;100498.47;4210575;28;22298;-66
2023/08/20 03:42:58;;;;;;;21.40;15.53;;;;;;;20.84;92.25;100501.00;4233916;28;21052;-66
2023/08/20 03:45:26;;;;;;;20.70;15.80;;;;;;;20.76;92.34;100492.13;4218159;28;20230;-67
2023/08/20 03:47:52;;;;;;;19.17;15.20;;;;;;;20.78;92.12;100496.34;4199092;28;20229;-66
2023/08/20 03:50:19;;;;;;;21.83;15.30;;;;;;;20.80;92.57;100497.00;4221550;28;20230;-65
2023/08/20 03:52:46;;;;;;;17.30;14.67;;;;;;;20.87;92.18;100497.84;4222771;28;20282;-65
2023/08/20 03:55:12;;;;;;;23.23;14.47;;;;;;;20.92;91.88;100504.59;4205615;28;20230;-69
2023/08/20 03:57:39;;;;;;;20.30;15.43;;;;;;;20.96;91.95;100497.59;4240807;28;20234;-65
2023/08/20 04:00:08;;;;;;;26.60;15.40;;;;;;;20.92;91.78;100499.94;4218367;28;20823;-67
2023/08/20 04:02:35;;;;;;;22.07;14.43;;;;;;;20.96;91.73;100503.94;4207907;28;20678;-66
2023/08/20 04:05:03;;;;;;;21.80;16.47;;;;;;;21.04;91.58;100505.59;4231334;28;20233;-68
2023/08/20 04:07:30;;;;;;;23.10;15.23;;;;;;;21.07;91.70;100496.94;4240856;28;25704;-66
2023/08/20 04:09:57;;;;;;;21.33;16.03;;;;;;;21.10;91.76;100498.41;4211243;28;23133;-64
2023/08/20 04:12:23;;;;;;;20.57;15.53;;;;;;;21.13;91.47;100496.06;4207738;28;20310;-68
2023/08/20 04:14:50;;;;;;;21.87;17.03;;;;;;;21.21;91.13;100495.84;4222017;28;20241;-66
2023/08/20 04:17:17;;;;;;;21.20;15.70;;;;;;;21.29;90.52;100500.28;4216731;28;20230;-66
2023/08/20 04:19:43;;;;;;;23.13;16.33;;;;;;;21.36;90.24;100506.59;4198046;28;20240;-65
2023/08/20 04:22:10;;;;;;;22.23;17.47;;;;;;;21.44;89.84;100512.94;4204974;28;21795;-67
2023/08/20 04:24:36;;;;;;;21.67;17.37;;;;;;;21.50;89.56;100506.53;4216198;28;21924;-68
2023/08/20 04:27:03;;;;;;;25.43;17.13;;;;;;;21.55;89.53;100508.66;4203746;28;25562;-66
2023/08/20 04:29:30;;;;;;;21.50;17.80;;;;;;;21.65;88.99;100520.91;4205274;28;21111;-66
2023/08/20 04:31:56;;;;;;;19.17;15.63;;;;;;;21.68;88.43;100509.44;4208205;28;20233;-67
2023/08/20 04:34:23;;;;;;;23.53;17.63;;;;;;;21.81;87.97;100508.53;4205078;28;22003;-66
2023/08/20 04:36:49;;;;;;;21.63;17.13;;;;;;;21.78;88.08;100502.63;4204328;28;20812;-64
2023/08/20 04:39:17;;;;;;;24.13;17.43;;;;;;;21.92;87.42;100506.16;4223485;28;20233;-65
2023/08/20 04:41:43;;;;;;;24.63;18.17;;;;;;;21.92;86.86;100511.66;4204985;28;20237;-66
2023/08/20 04:44:10;;;;;;;25.43;18.47;;;;;;;21.93;86.85;100503.16;4195979;28;20410;-65
2023/08/20 04:46:36;;;;;;;18.80;15.60;;;;;;;22.07;86.49;100505.84;4187383;28;20349;-66
2023/08/20 04:49:03;;;;;;;23.00;16.87;;;;;;;22.15;86.36;100495.41;4193225;28;20251;-67
2023/08/20 04:51:30;;;;;;;23.00;15.50;;;;;;;22.29;86.05;100507.16;4204801;28;20245;-64
2023/08/20 04:53:56;;;;;;;23.87;16.57;;;;;;;22.37;85.42;100497.78;4195780;28;20233;-67
2023/08/20 04:56:23;;;;;;;21.77;15.60;;;;;;;22.45;85.34;100497.53;4200667;28;20230;-65
2023/08/20 04:58:49;;;;;;;22.93;15.83;;;;;;;22.51;85.26;100500.47;4204411;28;20246;-65
2023/08/20 05:01:16;;;;;;;25.73;18.73;;;;;;;22.56;84.71;100501.47;4203639;28;20233;-67
2023/08/20 05:03:42;;;;;;;17.93;15.43;;;;;;;22.63;84.83;100491.22;4199412;28;20241;-66
2023/08/20 05:06:09;;;;;;;21.90;15.97;;;;;;;22.77;84.26;100500.22;4198827;28;21057;-65
2023/08/20 05:08:36;;;;;;;21.80;17.40;;;;;;;22.88;84.15;100501.41;4215245;28;22662;-67
2023/08/20 05:11:03;;;;;;;27.73;18.73;;;;;;;23.01;83.41;100505.09;4196523;28;20246;-67
2023/08/20 05:13:29;;;;;;;20.80;15.90;;;;;;;23.11;83.01;100513.69;4201801;28;21172;-67
2023/08/20 05:15:56;;;;;;;27.57;19.20;;;;;;;23.25;82.42;100515.28;4209210;28;20345;-68
2023/08/20 05:18:22;;;;;;;24.97;16.27;;;;;;;23.35;81.83;100511.09;4185365;28;22734;-66
2023/08/20 05:20:49;;;;;;;27.57;16.10;;;;;;;23.51;81.18;100510.47;4197835;28;20540;-67
2023/08/20 05:23:15;;;;;;;18.63;15.00;;;;;;;23.67;80.16;100516.44;4217071;28;25427;-65
2023/08/20 05:25:42;;;;;;;24.67;16.60;;;;;;;23.82;78.97;100519.66;4199535;28;20233;-66
2023/08/20 05:28:09;;;;;;;19.47;15.37;;;;;;;23.94;78.16;100514.22;4196116;28;20237;-65
2023/08/20 05:30:35;;;;;;;21.27;17.23;;;;;;;24.07;77.24;100515.94;4206844;28;20240;-65
2023/08/20 05:33:02;;;;;;;25.70;17.50;;;;;;;24.08;77.27;100523.16;4193755;28;22778;-65
2023/08/20 05:35:29;;;;;;;22.30;16.57;;;;;;;24.21;76.94;100524.88;4212175;28;20234;-67
2023/08/20 05:37:55;;;;;;;20.77;14.53;;;;;;;24.28;77.02;100524.78;4200942;28;20322;-64
2023/08/20 05:40:22;;;;;;;24.67;18.30;;;;;;;24.31;76.71;100524.31;4197714;28;20321;-67
2023/08/20 05:42:48;;;;;;;28.70;19.40;;;;;;;24.46;76.72;100526.63;4192203;28;20232;-65
2023/08/20 05:45:17;;;;;;;23.00;16.63;;;;;;;24.57;76.08;100528.56;4195186;28;20236;-67
2023/08/20 05:47:44;;;;;;;24.53;18.10;;;;;;;24.70;75.89;100530.28;4197154;28;20610;-64
2023/08/20 05:50:11;;;;;;;25.13;17.63;;;;;;;24.74;75.14;100525.09;4202672;28;20456;-66
2023/08/20 05:52:37;;;;;;;21.20;17.07;;;;;;;24.96;73.69;100526.19;4198180;28;20265;-67
2023/08/20 05:55:04;;;;;;;24.77;17.20;;;;;;;25.04;73.54;100522.22;4194931;28;20353;-66
2023/08/20 05:57:31;;;;;;;21.97;14.00;;;;;;;25.25;73.37;100528.22;4188091;28;20265;-66
2023/08/20 05:59:57;;;;;;;18.45;13.95;;;;;;;25.37;72.60;100534.59;4212912;28;20411;-67
2023/08/20 06:02:24;;;;;;;20.10;15.10;;;;;;;25.56;71.47;100532.56;4184915;28;20341;-67
2023/08/20 06:04:51;;;;;;;23.47;16.67;;;;;;;25.33;72.22;100529.78;4193020;28;20927;-67
2023/08/20 06:07:17;;;;;;;19.08;14.18;;;;;;;25.54;71.63;100534.72;4194333;28;23474;-66
2023/08/20 06:09:44;;;;;;;22.97;15.13;;;;;;;25.81;70.74;100534.13;4202297;28;20233;-65
2023/08/20 06:12:11;;;;;;;21.80;15.93;;;;;;;25.93;69.61;100534.94;4229707;28;20866;-65
2023/08/20 06:14:37;;;;;;;24.33;15.97;;;;;;;25.63;70.07;100535.16;4202836;28;20233;-66
2023/08/20 06:17:04;;;;;;;20.70;15.67;;;;;;;25.76;70.07;100534.03;4226722;28;21144;-64
2023/08/20 06:19:31;;;;;;;16.60;12.40;;;;;;;26.52;68.81;100531.03;4201862;28;21657;-66
2023/08/20 06:21:58;;;;;;;19.60;15.27;;;;;;;27.62;64.25;100532.41;4219022;28;20326;-66
2023/08/20 06:24:25;;;;;;;22.67;14.93;;;;;;;27.51;63.93;100536.16;4195867;28;20240;-66
2023/08/20 06:26:52;;;;;;;19.92;15.57;;;;;;;27.32;64.57;100535.59;4227455;28;20239;-67
2023/08/20 06:29:18;;;;;;;15.25;11.57;;;;;;;27.71;63.42;100532.78;4212111;28;20246;-64
2023/08/20 06:31:45;;;;;;;19.27;12.50;;;;;;;28.21;62.29;100536.41;4197430;28;21593;-68
2023/08/20 06:34:12;;;;;;;26.02;11.57;;;;;;;28.55;60.87;100536.16;4200517;28;20239;-67
2023/08/20 06:36:38;;;;;;;14.18;11.50;;;;;;;29.01;60.03;100538.50;4193866;28;20260;-68
2023/08/20 06:39:05;;;;;;;16.88;11.43;;;;;;;29.90;57.17;100537.81;4205021;28;20321;-67
2023/08/20 06:41:31;;;;;;;14.73;11.35;;;;;;;30.97;53.51;100541.84;4194637;28;20235;-68
2023/08/20 06:43:58;;;;;;;21.17;12.00;;;;;;;31.12;52.11;100540.16;4192199;28;20350;-66
2023/08/20 06:46:25;;;;;;;16.88;11.77;;;;;;;32.23;49.44;100538.31;4219183;28;20482;-66
2023/08/20 06:48:52;;;;;;;13.88;10.95;;;;;;;32.47;49.33;100535.59;4214693;28;21552;-67
2023/08/20 06:51:21;;;;;;;19.20;11.55;;;;;;;32.49;47.61;100540.91;4214733;28;20467;-44
2023/08/20 06:53:49;;;;;;;13.85;9.45;;;;;;;33.44;45.79;100543.41;4201557;28;26315;-68
2023/08/20 06:56:15;;;;;;;14.18;9.98;;;;;;;35.04;42.26;100549.47;4204799;28;21117;-68
2023/08/20 06:58:42;;;;;;;13.88;10.77;;;;;;;34.82;41.94;100555.72;4197033;28;20744;-67
2023/08/20 07:01:09;;;;;;;13.85;10.40;;;;;;;33.93;43.65;100561.03;4198695;28;20289;-70
2023/08/20 07:03:41;;;;;;;11.82;9.48;;;;;;;34.46;42.89;100562.78;4194295;28;20233;-68
2023/08/20 07:06:14;;;;;;;11.98;9.70;;;;;;;35.59;40.65;100556.25;4196129;28;21687;-66
2023/08/20 07:08:40;;;;;;;13.38;9.77;;;;;;;35.80;40.49;100560.31;4205413;28;20241;-69
2023/08/20 07:11:07;;;;;;;13.43;9.32;;;;;;;36.62;39.26;100560.41;4198316;28;20764;-70
2023/08/20 07:13:35;;;;;;;14.75;9.65;;;;;;;36.05;39.04;100563.72;4193819;28;20690;-68
2023/08/20 07:16:02;;;;;;;16.23;10.20;;;;;;;35.73;40.36;100559.06;4197438;28;20274;-71
2023/08/20 07:18:29;;;;;;;13.20;9.93;;;;;;;35.97;40.67;100561.66;4197507;28;20774;-69
2023/08/20 07:20:56;;;;;;;14.25;9.27;;;;;;;37.87;36.54;100561.53;4219564;28;20248;-69
2023/08/20 07:23:23;;;;;;;11.20;9.10;;;;;;;38.30;35.37;100562.72;4206294;28;20608;-67
2023/08/20 07:25:52;;;;;;;16.02;9.73;;;;;;;37.66;36.84;100574.56;4226691;28;20232;-70
2023/08/20 07:28:26;;;;;;;13.35;9.98;;;;;;;38.57;35.03;100568.38;4207940;28;20230;-69
2023/08/20 07:30:53;;;;;;;13.25;9.40;;;;;;;36.62;37.89;100573.69;4219620;28;22457;-69
2023/08/20 07:33:19;;;;;;;14.50;10.60;;;;;;;34.48;41.79;100577.38;4218532;28;22972;-69
2023/08/20 07:35:46;;;;;;;13.52;9.90;;;;;;;35.64;39.94;100571.06;4211412;28;20241;-69
2023/08/20 07:38:13;;;;;;;11.73;8.60;;;;;;;37.08;36.00;100568.84;4204933;28;20237;-70
2023/08/20 07:40:39;;;;;;;15.85;9.18;;;;;;;36.65;37.74;100570.22;4237733;28;21212;-69
2023/08/20 07:43:06;;;;;;;12.98;8.00;;;;;;;38.47;35.05;100570.41;4206680;28;22109;-71
2023/08/20 07:45:32;;;;;;;14.35;9.23;;;;;;;37.19;36.53;100558.94;4220170;28;20246;-68
2023/08/20 07:48:00;;;;;;;9.13;7.72;;;;;;;39.25;34.02;100571.44;4213364;28;20299;-69
2023/08/20 07:50:27;;;;;;;14.13;9.15;;;;;;;36.17;37.46;100572.47;4211082;28;20401;-67
2023/08/20 07:52:53;;;;;;;10.70;8.52;;;;;;;37.93;34.88;100570.66;4198307;28;20234;-68
2023/08/20 07:55:20;;;;;;;9.38;7.95;;;;;;;38.65;33.34;100573.19;4198228;28;20238;-69
2023/08/20 07:57:48;;;;;;;14.00;8.88;;;;;;;37.15;36.03;100574.03;4233927;28;20229;-66
2023/08/20 08:00:15;;;;;;;12.43;8.52;;;;;;;38.49;34.13;100581.38;4246578;28;20707;-69
2023/08/20 08:02:42;;;;;;;17.80;8.77;;;;;;;37.13;36.30;100577.16;4207591;28;20593;-67
2023/08/20 08:05:09;;;;;;;13.23;10.20;;;;;;;35.46;39.38;100578.50;4203605;28;20236;-68
2023/08/20 08:07:36;;;;;;;11.98;8.82;;;;;;;34.91;41.23;100582.84;4212591;28;20303;-68
2023/08/20 08:10:03;;;;;;;15.23;9.27;;;;;;;35.21;39.53;100577.81;4226682;28;24150;-69
2023/08/20 08:12:30;;;;;;;13.27;8.63;;;;;;;34.46;41.29;100576.03;4192227;28;20284;-70
2023/08/20 08:14:56;;;;;;;11.30;8.75;;;;;;;34.52;41.40;100571.97;4211528;28;20327;-68
2023/08/20 08:17:23;;;;;;;17.83;9.20;;;;;;;33.46;42.59;100572.00;4216429;28;21077;-67
2023/08/20 08:19:51;;;;;;;10.95;8.55;;;;;;;33.56;43.53;100571.03;4221047;28;26100;-68
2023/08/20 08:22:18;;;;;;;12.98;8.65;;;;;;;33.61;43.28;100568.16;4179911;28;20239;-69
2023/08/20 08:24:45;;;;;;;12.50;9.00;;;;;;;32.80;42.50;100572.38;4214220;28;20233;-73
2023/08/20 08:27:12;;;;;;;12.43;8.93;;;;;;;32.76;44.50;100571.22;4205819;28;20236;-68
2023/08/20 08:29:38;;;;;;;11.05;9.07;;;;;;;32.52;44.58;100571.16;4221640;28;20275;-69
2023/08/20 08:32:05;;;;;;;14.27;8.52;;;;;;;32.76;44.33;100564.81;4202043;28;21186;-68
2023/08/20 08:34:32;;;;;;;12.60;8.25;;;;;;;33.30;43.02;100569.34;4208652;28;20238;-68
2023/08/20 08:36:58;;;;;;;13.63;8.88;;;;;;;32.45;45.41;100570.66;4207979;28;20420;-69
2023/08/20 08:39:25;;;;;;;12.68;8.32;;;;;;;32.71;42.56;100571.28;4211115;28;21543;-45
2023/08/20 08:41:56;;;;;;;14.13;8.50;;;;;;;33.63;43.05;100568.72;4210548;28;20253;-70
2023/08/20 08:44:23;;;;;;;13.50;8.90;;;;;;;33.04;44.14;100577.19;4221757;28;21468;-68
2023/08/20 08:46:51;;;;;;;12.52;8.80;;;;;;;32.76;44.74;100570.41;4211953;28;20232;-70
2023/08/20 08:49:19;;;;;;;12.30;8.10;;;;;;;32.69;43.69;100581.94;4222730;28;20241;-69
2023/08/20 08:51:46;;;;;;;10.32;7.55;;;;;;;32.76;42.44;100582.44;4224937;28;20550;-68
2023/08/20 08:54:13;;;;;;;13.52;8.15;;;;;;;33.31;42.98;100585.06;4219865;28;20635;-67
2023/08/20 08:56:40;;;;;;;11.98;8.98;;;;;;;32.92;43.90;100582.34;4253242;28;20242;-70
2023/08/20 08:59:06;;;;;;;11.02;7.70;;;;;;;33.34;43.06;100583.66;4218621;28;20246;-70
2023/08/20 09:01:38;;;;;;;12.13;8.48;;;;;;;32.50;44.04;100579.88;4199311;28;20317;-69
2023/08/20 09:04:04;;;;;;;11.85;7.88;;;;;;;32.92;43.82;100579.53;4217465;28;25073;-68
2023/08/20 09:06:48;;;;;;;10.07;7.60;;;;;;;32.26;43.78;100579.72;4209276;28;21263;-68
2023/08/20 09:09:16;;;;;;;14.05;8.60;;;;;;;32.02;45.28;100573.97;4204192;28;20247;-69
2023/08/20 09:11:43;;;;;;;10.45;7.55;;;;;;;32.51;43.60;100577.88;4204254;28;20570;-68
2023/08/20 09:14:23;;;;;;;11.40;9.30;;;;;;;31.45;46.68;100579.81;4196564;28;20243;-69
2023/08/20 09:17:01;;;;;;;11.10;8.18;;;;;;;32.19;43.14;100573.59;4183057;28;20290;-67
2023/08/20 09:19:32;;;;;;;11.30;8.80;;;;;;;32.10;44.12;100576.19;4210640;28;20229;-70
2023/08/20 09:22:00;;;;;;;12.68;8.32;;;;;;;32.10;44.42;100578.16;4198560;28;20345;-70
2023/08/20 09:24:35;;;;;;;15.75;9.18;;;;;;;32.05;45.90;100574.25;4178936;28;20233;-68
2023/08/20 09:27:05;;;;;;;10.93;8.27;;;;;;;32.72;43.56;100578.56;4213938;28;20239;-68
2023/08/20 09:29:34;;;;;;;11.48;8.07;;;;;;;33.12;42.96;100582.13;4215354;28;20570;-69
2023/08/20 09:32:02;;;;;;;15.75;9.32;;;;;;;32.21;45.22;100571.34;4197618;28;21200;-70
2023/08/20 09:34:36;;;;;;;10.73;9.20;;;;;;;31.92;45.48;100569.28;4197458;28;20237;-68
2023/08/20 09:37:03;;;;;;;10.10;9.00;;;;;;;32.07;45.52;100572.00;4215880;28;20465;-69
2023/08/20 09:39:30;;;;;;;11.77;8.82;;;;;;;31.81;46.64;100565.69;4209057;28;20718;-69
2023/08/20 09:41:57;;;;;;;10.98;9.07;;;;;;;31.88;46.57;100573.75;4208732;28;20592;-66
2023/08/20 09:44:23;;;;;;;14.75;9.10;;;;;;;31.07;46.46;100565.31;4204351;28;20328;-69
2023/08/20 09:46:50;;;;;;;16.10;9.50;;;;;;;31.42;47.41;100569.16;4209147;28;20821;-70
2023/08/20 09:49:18;;;;;;;14.27;9.55;;;;;;;31.38;47.78;100565.28;4193441;28;20364;-69
2023/08/20 09:51:46;;;;;;;14.93;10.18;;;;;;;30.89;49.28;100569.53;4218719;28;20246;-70
2023/08/20 09:54:20;;;;;;;13.35;9.55;;;;;;;31.34;47.28;100566.97;4203328;28;20505;-70
2023/08/20 09:56:54;;;;;;;11.88;9.05;;;;;;;31.71;46.16;100554.53;4194292;28;20408;-69
2023/08/20 09:59:21;;;;;;;13.25;9.98;;;;;;;32.04;45.65;100558.56;4202046;28;20250;-69
2023/08/20 10:01:48;;;;;;;11.30;9.93;;;;;;;32.06;45.95;100552.69;4202957;28;20315;-70
2023/08/20 10:04:17;;;;;;;14.02;9.43;;;;;;;32.16;45.97;100558.22;4201818;28;20252;-69
2023/08/20 10:06:43;;;;;;;12.75;9.85;;;;;;;32.15;46.00;100553.72;4200008;28;20235;-68
2023/08/20 10:09:10;;;;;;;12.80;9.63;;;;;;;32.11;45.47;100555.44;4206621;28;20231;-67
2023/08/20 10:11:37;;;;;;;11.93;9.48;;;;;;;32.40;44.57;100549.13;4193531;28;20653;-70
2023/08/20 10:14:04;;;;;;;11.82;9.15;;;;;;;32.06;45.32;100541.50;4191256;28;21544;-69
2023/08/20 10:16:33;;;;;;;11.38;8.75;;;;;;;32.07;43.03;100538.38;4213043;28;20233;-69
2023/08/20 10:19:05;;;;;;;12.88;8.52;;;;;;;31.63;44.33;100541.09;4188437;28;20250;-69
2023/08/20 10:21:32;;;;;;;12.65;8.73;;;;;;;31.02;45.35;100535.41;4208972;28;20242;-70
2023/08/20 10:24:06;;;;;;;14.85;9.90;;;;;;;31.70;46.49;100541.66;4201493;28;20305;-69
2023/08/20 10:26:36;;;;;;;11.10;9.10;;;;;;;31.56;46.39;100536.66;4207931;28;20253;-68
2023/08/20 10:29:38;;;;;;;10.27;8.35;;;;;;;31.59;45.69;100546.44;4217495;28;20245;-68
2023/08/20 10:32:06;;;;;;;9.38;8.38;;;;;;;31.78;43.78;100535.47;4207642;28;20233;-69
2023/08/20 10:34:37;;;;;;;10.18;8.73;;;;;;;31.60;44.78;100540.59;4212535;28;21368;-68
2023/08/20 10:37:11;;;;;;;11.35;8.63;;;;;;;32.05;44.27;100545.41;4205714;28;22590;-68
2023/08/20 10:39:37;;;;;;;14.27;9.80;;;;;;;31.95;45.18;100535.09;4206147;28;20239;-68
2023/08/20 10:42:19;;;;;;;12.25;9.40;;;;;;;31.37;46.96;100542.06;4197743;28;21755;-67
2023/08/20 10:44:58;;;;;;;12.35;9.05;;;;;;;31.53;45.69;100533.59;4219983;28;20234;-68
2023/08/20 10:47:25;;;;;;;9.77;8.70;;;;;;;31.02;46.07;100543.81;4203100;28;20258;-67
2023/08/20 10:49:53;;;;;;;14.93;9.52;;;;;;;31.18;46.21;100543.81;4178602;28;25580;-66
2023/08/20 10:52:22;;;;;;;14.70;9.63;;;;;;;31.25;46.10;100541.53;4208621;28;21255;-67
2023/08/20 10:54:52;;;;;;;14.15;9.13;;;;;;;31.68;45.14;100533.56;4208990;28;20292;-66
2023/08/20 10:57:22;;;;;;;11.95;8.98;;;;;;;31.73;45.77;100529.91;4199306;28;20241;-67
2023/08/20 11:00:00;;;;;;;21.48;9.65;;;;;;;31.27;45.71;100526.16;4214389;28;20248;-69
2023/08/20 11:02:28;;;;;;;11.88;9.00;;;;;;;31.62;45.13;100526.28;4197580;28;20233;-69
2023/08/20 11:04:54;;;;;;;10.77;8.77;;;;;;;31.76;43.49;100521.78;4228797;28;20656;-67
2023/08/20 11:07:21;;;;;;;11.50;8.88;;;;;;;32.04;43.33;100522.16;4208607;28;20252;-67
2023/08/20 11:09:50;;;;;;;11.82;9.77;;;;;;;31.69;44.99;100529.66;4209215;28;20240;-68
2023/08/20 11:12:16;;;;;;;10.48;9.13;;;;;;;31.25;46.77;100533.97;4201706;28;20302;-67
2023/08/20 11:14:43;;;;;;;12.65;10.02;;;;;;;31.19;46.42;100532.31;4187017;28;21146;-68
2023/08/20 11:17:10;;;;;;;12.93;10.00;;;;;;;31.23;47.10;100524.19;4201073;28;20241;-70